sensor_id;sensor_type;location;lat;lon;timestamp;P1;durP1;ratioP1;P2;durP2;ratioP2
15132;SDS011;7667;51.232;17.110;2023-04-12T00:01:17;8.77;;;6.47;;
15132;SDS011;7667;51.232;17.110;2023-04-12T00:03:45;8.63;;;5.70;;
15132;SDS011;7667;51.232;17.110;2023-04-12T00:06:16;8.03;;;5.60;;
15132;SDS011;7667;51.232;17.110;2023-04-12T00:08:44;7.93;;;5.63;;
15132;SDS011;7667;51.232;17.110;2023-04-12T00:11:12;7.03;;;5.00;;
15132;SDS011;7667;51.232;17.110;2023-04-12T00:13:40;6.73;;;5.10;;
15132;SDS011;7667;51.232;17.110;2023-04-12T00:16:08;7.27;;;5.20;;
15132;SDS011;7667;51.232;17.110;2023-04-12T00:18:35;7.60;;;5.30;;
15132;SDS011;7667;51.232;17.110;2023-04-12T00:21:03;7.57;;;5.20;;
15132;SDS011;7667;51.232;17.110;2023-04-12T00:23:31;6.90;;;4.63;;
15132;SDS011;7667;51.232;17.110;2023-04-12T00:25:59;6.43;;;5.10;;
15132;SDS011;7667;51.232;17.110;2023-04-12T00:28:26;5.70;;;4.83;;
15132;SDS011;7667;51.232;17.110;2023-04-12T00:30:54;9.13;;;5.47;;
15132;SDS011;7667;51.232;17.110;2023-04-12T00:33:21;6.47;;;4.90;;
15132;SDS011;7667;51.232;17.110;2023-04-12T00:35:49;6.73;;;5.27;;
15132;SDS011;7667;51.232;17.110;2023-04-12T00:38:17;6.60;;;5.03;;
15132;SDS011;7667;51.232;17.110;2023-04-12T00:40:44;5.67;;;4.77;;
15132;SDS011;7667;51.232;17.110;2023-04-12T00:43:12;6.33;;;4.87;;
15132;SDS011;7667;51.232;17.110;2023-04-12T00:45:46;6.10;;;5.20;;
15132;SDS011;7667;51.232;17.110;2023-04-12T00:48:15;7.20;;;5.23;;
15132;SDS011;7667;51.232;17.110;2023-04-12T00:50:43;5.57;;;4.90;;
15132;SDS011;7667;51.232;17.110;2023-04-12T00:53:11;6.53;;;4.57;;
15132;SDS011;7667;51.232;17.110;2023-04-12T00:55:43;8.53;;;5.00;;
15132;SDS011;7667;51.232;17.110;2023-04-12T00:58:12;6.03;;;5.10;;
15132;SDS011;7667;51.232;17.110;2023-04-12T01:00:41;6.47;;;4.73;;
15132;SDS011;7667;51.232;17.110;2023-04-12T01:03:16;7.10;;;4.90;;
15132;SDS011;7667;51.232;17.110;2023-04-12T01:05:51;6.67;;;4.80;;
15132;SDS011;7667;51.232;17.110;2023-04-12T01:08:37;7.97;;;5.43;;
15132;SDS011;7667;51.232;17.110;2023-04-12T01:11:52;7.43;;;5.17;;
15132;SDS011;7667;51.232;17.110;2023-04-12T01:17:42;8.53;;;4.90;;
15132;SDS011;7667;51.232;17.110;2023-04-12T01:20:25;6.80;;;4.50;;
15132;SDS011;7667;51.232;17.110;2023-04-12T01:28:38;5.13;;;4.50;;
15132;SDS011;7667;51.232;17.110;2023-04-12T01:31:09;6.30;;;4.70;;
15132;SDS011;7667;51.232;17.110;2023-04-12T01:33:38;7.43;;;4.80;;
15132;SDS011;7667;51.232;17.110;2023-04-12T01:36:18;6.33;;;4.23;;
15132;SDS011;7667;51.232;17.110;2023-04-12T01:38:48;6.97;;;4.20;;
15132;SDS011;7667;51.232;17.110;2023-04-12T01:41:17;8.50;;;4.67;;
15132;SDS011;7667;51.232;17.110;2023-04-12T01:43:46;5.77;;;4.00;;
15132;SDS011;7667;51.232;17.110;2023-04-12T01:46:14;5.03;;;4.27;;
15132;SDS011;7667;51.232;17.110;2023-04-12T01:48:50;5.67;;;3.97;;
15132;SDS011;7667;51.232;17.110;2023-04-12T01:54:03;4.10;;;3.67;;
15132;SDS011;7667;51.232;17.110;2023-04-12T01:56:39;5.23;;;3.70;;
15132;SDS011;7667;51.232;17.110;2023-04-12T01:59:11;4.63;;;3.30;;
15132;SDS011;7667;51.232;17.110;2023-04-12T02:01:42;5.57;;;3.60;;
15132;SDS011;7667;51.232;17.110;2023-04-12T02:04:12;6.47;;;3.60;;
15132;SDS011;7667;51.232;17.110;2023-04-12T02:06:42;6.23;;;3.37;;
15132;SDS011;7667;51.232;17.110;2023-04-12T02:09:11;3.93;;;3.07;;
15132;SDS011;7667;51.232;17.110;2023-04-12T02:11:39;5.73;;;3.53;;
15132;SDS011;7667;51.232;17.110;2023-04-12T02:14:07;4.83;;;3.20;;
15132;SDS011;7667;51.232;17.110;2023-04-12T02:16:35;6.30;;;3.07;;
15132;SDS011;7667;51.232;17.110;2023-04-12T02:19:03;4.47;;;2.97;;
15132;SDS011;7667;51.232;17.110;2023-04-12T02:21:40;5.43;;;3.20;;
15132;SDS011;7667;51.232;17.110;2023-04-12T02:24:09;4.10;;;2.90;;
15132;SDS011;7667;51.232;17.110;2023-04-12T02:26:38;5.10;;;3.17;;
15132;SDS011;7667;51.232;17.110;2023-04-12T02:29:07;3.53;;;2.73;;
15132;SDS011;7667;51.232;17.110;2023-04-12T02:31:36;3.63;;;2.90;;
15132;SDS011;7667;51.232;17.110;2023-04-12T02:34:04;5.80;;;3.30;;
15132;SDS011;7667;51.232;17.110;2023-04-12T02:36:32;3.33;;;2.90;;
15132;SDS011;7667;51.232;17.110;2023-04-12T02:39:03;3.93;;;2.77;;
15132;SDS011;7667;51.232;17.110;2023-04-12T02:41:31;4.17;;;3.10;;
15132;SDS011;7667;51.232;17.110;2023-04-12T02:43:59;3.87;;;2.57;;
15132;SDS011;7667;51.232;17.110;2023-04-12T02:46:26;4.13;;;3.00;;
15132;SDS011;7667;51.232;17.110;2023-04-12T02:48:54;4.67;;;2.77;;
15132;SDS011;7667;51.232;17.110;2023-04-12T02:51:22;4.27;;;2.80;;
15132;SDS011;7667;51.232;17.110;2023-04-12T02:53:49;4.67;;;2.83;;
15132;SDS011;7667;51.232;17.110;2023-04-12T02:56:16;4.10;;;2.40;;
15132;SDS011;7667;51.232;17.110;2023-04-12T02:58:44;4.67;;;2.60;;
15132;SDS011;7667;51.232;17.110;2023-04-12T03:01:12;4.83;;;2.67;;
15132;SDS011;7667;51.232;17.110;2023-04-12T03:03:40;4.53;;;2.67;;
15132;SDS011;7667;51.232;17.110;2023-04-12T03:06:08;5.37;;;2.70;;
15132;SDS011;7667;51.232;17.110;2023-04-12T03:08:36;4.23;;;2.60;;
15132;SDS011;7667;51.232;17.110;2023-04-12T03:11:04;7.17;;;2.80;;
15132;SDS011;7667;51.232;17.110;2023-04-12T03:13:32;3.77;;;2.83;;
15132;SDS011;7667;51.232;17.110;2023-04-12T03:16:00;5.80;;;2.73;;
15132;SDS011;7667;51.232;17.110;2023-04-12T03:18:51;3.50;;;2.60;;
15132;SDS011;7667;51.232;17.110;2023-04-12T03:21:18;3.77;;;2.40;;
15132;SDS011;7667;51.232;17.110;2023-04-12T03:23:46;3.70;;;2.63;;
15132;SDS011;7667;51.232;17.110;2023-04-12T03:26:13;3.50;;;2.50;;
15132;SDS011;7667;51.232;17.110;2023-04-12T03:28:41;3.23;;;2.60;;
15132;SDS011;7667;51.232;17.110;2023-04-12T03:31:09;3.67;;;2.77;;
15132;SDS011;7667;51.232;17.110;2023-04-12T03:33:36;5.27;;;2.63;;
15132;SDS011;7667;51.232;17.110;2023-04-12T03:36:04;3.30;;;2.43;;
15132;SDS011;7667;51.232;17.110;2023-04-12T03:38:32;3.50;;;2.60;;
15132;SDS011;7667;51.232;17.110;2023-04-12T03:41:00;4.23;;;2.60;;
15132;SDS011;7667;51.232;17.110;2023-04-12T03:43:27;4.03;;;2.63;;
15132;SDS011;7667;51.232;17.110;2023-04-12T03:46:02;2.77;;;2.40;;
15132;SDS011;7667;51.232;17.110;2023-04-12T03:48:30;3.90;;;2.53;;
15132;SDS011;7667;51.232;17.110;2023-04-12T03:50:58;3.30;;;2.70;;
15132;SDS011;7667;51.232;17.110;2023-04-12T03:53:33;4.57;;;2.80;;
15132;SDS011;7667;51.232;17.110;2023-04-12T03:56:01;4.13;;;3.07;;
15132;SDS011;7667;51.232;17.110;2023-04-12T03:58:28;3.73;;;3.10;;
15132;SDS011;7667;51.232;17.110;2023-04-12T04:00:56;4.83;;;3.13;;
15132;SDS011;7667;51.232;17.110;2023-04-12T04:03:26;3.50;;;3.00;;
15132;SDS011;7667;51.232;17.110;2023-04-12T04:05:55;4.50;;;3.53;;
15132;SDS011;7667;51.232;17.110;2023-04-12T04:08:23;4.50;;;3.27;;
15132;SDS011;7667;51.232;17.110;2023-04-12T04:10:50;6.27;;;3.60;;
15132;SDS011;7667;51.232;17.110;2023-04-12T04:13:18;5.10;;;3.50;;
15132;SDS011;7667;51.232;17.110;2023-04-12T04:15:45;5.10;;;3.40;;
15132;SDS011;7667;51.232;17.110;2023-04-12T04:18:16;6.10;;;3.60;;
15132;SDS011;7667;51.232;17.110;2023-04-12T04:20:44;6.73;;;3.70;;
15132;SDS011;7667;51.232;17.110;2023-04-12T04:23:11;5.87;;;3.40;;
15132;SDS011;7667;51.232;17.110;2023-04-12T04:25:39;4.30;;;3.70;;
15132;SDS011;7667;51.232;17.110;2023-04-12T04:28:07;5.00;;;3.90;;
15132;SDS011;7667;51.232;17.110;2023-04-12T04:30:35;5.07;;;3.73;;
15132;SDS011;7667;51.232;17.110;2023-04-12T04:33:06;4.97;;;4.10;;
15132;SDS011;7667;51.232;17.110;2023-04-12T04:35:36;5.80;;;4.00;;
15132;SDS011;7667;51.232;17.110;2023-04-12T04:38:06;6.03;;;3.90;;
15132;SDS011;7667;51.232;17.110;2023-04-12T04:40:35;6.00;;;3.93;;
15132;SDS011;7667;51.232;17.110;2023-04-12T04:43:04;6.20;;;4.43;;
15132;SDS011;7667;51.232;17.110;2023-04-12T04:45:33;5.57;;;4.03;;
15132;SDS011;7667;51.232;17.110;2023-04-12T04:48:02;4.87;;;3.90;;
15132;SDS011;7667;51.232;17.110;2023-04-12T04:50:29;5.23;;;4.00;;
15132;SDS011;7667;51.232;17.110;2023-04-12T04:52:57;4.93;;;3.73;;
15132;SDS011;7667;51.232;17.110;2023-04-12T04:55:25;5.57;;;3.80;;
15132;SDS011;7667;51.232;17.110;2023-04-12T04:57:53;3.97;;;3.57;;
15132;SDS011;7667;51.232;17.110;2023-04-12T05:00:23;5.30;;;4.23;;
15132;SDS011;7667;51.232;17.110;2023-04-12T05:02:51;4.77;;;3.10;;
15132;SDS011;7667;51.232;17.110;2023-04-12T05:05:19;3.93;;;3.10;;
15132;SDS011;7667;51.232;17.110;2023-04-12T05:07:49;6.00;;;3.40;;
15132;SDS011;7667;51.232;17.110;2023-04-12T05:10:16;4.47;;;3.40;;
15132;SDS011;7667;51.232;17.110;2023-04-12T05:12:44;4.10;;;3.17;;
15132;SDS011;7667;51.232;17.110;2023-04-12T05:15:11;6.57;;;5.20;;
15132;SDS011;7667;51.232;17.110;2023-04-12T05:17:39;6.33;;;4.47;;
15132;SDS011;7667;51.232;17.110;2023-04-12T05:20:07;6.60;;;4.63;;
15132;SDS011;7667;51.232;17.110;2023-04-12T05:22:36;3.93;;;3.53;;
15132;SDS011;7667;51.232;17.110;2023-04-12T05:25:04;4.20;;;3.80;;
15132;SDS011;7667;51.232;17.110;2023-04-12T05:27:32;4.97;;;2.93;;
15132;SDS011;7667;51.232;17.110;2023-04-12T05:30:00;5.03;;;3.70;;
15132;SDS011;7667;51.232;17.110;2023-04-12T05:32:27;4.93;;;4.13;;
15132;SDS011;7667;51.232;17.110;2023-04-12T05:34:55;5.60;;;4.40;;
15132;SDS011;7667;51.232;17.110;2023-04-12T05:37:23;5.27;;;4.23;;
15132;SDS011;7667;51.232;17.110;2023-04-12T05:39:50;6.60;;;4.50;;
15132;SDS011;7667;51.232;17.110;2023-04-12T05:42:18;7.00;;;4.57;;
15132;SDS011;7667;51.232;17.110;2023-04-12T05:44:45;5.43;;;4.33;;
15132;SDS011;7667;51.232;17.110;2023-04-12T05:47:15;5.63;;;4.50;;
15132;SDS011;7667;51.232;17.110;2023-04-12T05:49:43;7.43;;;5.37;;
15132;SDS011;7667;51.232;17.110;2023-04-12T05:52:12;7.07;;;4.57;;
15132;SDS011;7667;51.232;17.110;2023-04-12T05:54:39;6.90;;;5.00;;
15132;SDS011;7667;51.232;17.110;2023-04-12T05:57:08;7.13;;;3.90;;
15132;SDS011;7667;51.232;17.110;2023-04-12T05:59:36;3.77;;;3.30;;
15132;SDS011;7667;51.232;17.110;2023-04-12T06:02:03;6.73;;;4.00;;
15132;SDS011;7667;51.232;17.110;2023-04-12T06:04:31;4.70;;;3.57;;
15132;SDS011;7667;51.232;17.110;2023-04-12T06:07:15;5.70;;;3.73;;
15132;SDS011;7667;51.232;17.110;2023-04-12T06:09:45;5.60;;;3.77;;
15132;SDS011;7667;51.232;17.110;2023-04-12T06:12:13;4.90;;;3.70;;
15132;SDS011;7667;51.232;17.110;2023-04-12T06:14:40;4.87;;;3.70;;
15132;SDS011;7667;51.232;17.110;2023-04-12T06:17:08;4.63;;;3.27;;
15132;SDS011;7667;51.232;17.110;2023-04-12T06:19:35;5.30;;;4.10;;
15132;SDS011;7667;51.232;17.110;2023-04-12T06:22:03;4.23;;;3.40;;
15132;SDS011;7667;51.232;17.110;2023-04-12T06:24:30;5.43;;;3.60;;
15132;SDS011;7667;51.232;17.110;2023-04-12T06:26:58;5.87;;;3.80;;
15132;SDS011;7667;51.232;17.110;2023-04-12T06:29:26;6.17;;;3.73;;
15132;SDS011;7667;51.232;17.110;2023-04-12T06:31:53;5.80;;;3.70;;
15132;SDS011;7667;51.232;17.110;2023-04-12T06:34:21;5.67;;;3.57;;
15132;SDS011;7667;51.232;17.110;2023-04-12T06:36:48;6.43;;;3.30;;
15132;SDS011;7667;51.232;17.110;2023-04-12T06:39:16;6.07;;;3.53;;
15132;SDS011;7667;51.232;17.110;2023-04-12T06:41:43;5.80;;;3.40;;
15132;SDS011;7667;51.232;17.110;2023-04-12T06:44:13;4.57;;;3.30;;
15132;SDS011;7667;51.232;17.110;2023-04-12T06:46:40;4.00;;;3.43;;
15132;SDS011;7667;51.232;17.110;2023-04-12T06:49:08;7.40;;;3.50;;
15132;SDS011;7667;51.232;17.110;2023-04-12T06:51:36;5.80;;;3.90;;
15132;SDS011;7667;51.232;17.110;2023-04-12T06:54:03;6.13;;;3.80;;
15132;SDS011;7667;51.232;17.110;2023-04-12T06:56:31;5.17;;;3.77;;
15132;SDS011;7667;51.232;17.110;2023-04-12T06:59:00;5.73;;;3.50;;
15132;SDS011;7667;51.232;17.110;2023-04-12T07:01:27;4.97;;;3.70;;
15132;SDS011;7667;51.232;17.110;2023-04-12T07:03:55;7.23;;;3.70;;
15132;SDS011;7667;51.232;17.110;2023-04-12T07:06:23;4.67;;;3.60;;
15132;SDS011;7667;51.232;17.110;2023-04-12T07:08:51;3.70;;;3.40;;
15132;SDS011;7667;51.232;17.110;2023-04-12T07:11:20;4.13;;;3.60;;
15132;SDS011;7667;51.232;17.110;2023-04-12T07:13:49;5.13;;;3.50;;
15132;SDS011;7667;51.232;17.110;2023-04-12T07:16:17;4.53;;;4.07;;
15132;SDS011;7667;51.232;17.110;2023-04-12T07:18:45;5.43;;;4.20;;
15132;SDS011;7667;51.232;17.110;2023-04-12T07:21:13;4.60;;;3.57;;
15132;SDS011;7667;51.232;17.110;2023-04-12T07:23:43;5.13;;;4.63;;
15132;SDS011;7667;51.232;17.110;2023-04-12T07:26:12;6.97;;;4.57;;
15132;SDS011;7667;51.232;17.110;2023-04-12T07:28:39;12.73;;;9.43;;
15132;SDS011;7667;51.232;17.110;2023-04-12T07:31:07;6.23;;;3.63;;
15132;SDS011;7667;51.232;17.110;2023-04-12T07:33:34;4.17;;;3.40;;
15132;SDS011;7667;51.232;17.110;2023-04-12T07:36:06;3.93;;;3.50;;
15132;SDS011;7667;51.232;17.110;2023-04-12T07:38:34;5.67;;;3.70;;
15132;SDS011;7667;51.232;17.110;2023-04-12T07:41:01;3.50;;;3.20;;
15132;SDS011;7667;51.232;17.110;2023-04-12T07:43:29;4.47;;;3.33;;
15132;SDS011;7667;51.232;17.110;2023-04-12T07:45:56;4.10;;;3.70;;
15132;SDS011;7667;51.232;17.110;2023-04-12T07:48:25;7.03;;;3.43;;
15132;SDS011;7667;51.232;17.110;2023-04-12T07:50:52;7.03;;;3.40;;
15132;SDS011;7667;51.232;17.110;2023-04-12T07:53:26;4.70;;;3.37;;
15132;SDS011;7667;51.232;17.110;2023-04-12T07:55:55;3.43;;;2.83;;
15132;SDS011;7667;51.232;17.110;2023-04-12T07:58:23;3.93;;;3.10;;
15132;SDS011;7667;51.232;17.110;2023-04-12T08:00:52;4.10;;;2.90;;
15132;SDS011;7667;51.232;17.110;2023-04-12T08:03:20;2.90;;;2.57;;
15132;SDS011;7667;51.232;17.110;2023-04-12T08:05:47;4.63;;;2.80;;
15132;SDS011;7667;51.232;17.110;2023-04-12T08:08:19;3.20;;;2.57;;
15132;SDS011;7667;51.232;17.110;2023-04-12T08:10:50;4.27;;;2.53;;
15132;SDS011;7667;51.232;17.110;2023-04-12T08:13:18;5.60;;;4.40;;
15132;SDS011;7667;51.232;17.110;2023-04-12T08:15:46;4.30;;;3.17;;
15132;SDS011;7667;51.232;17.110;2023-04-12T08:18:14;6.27;;;2.70;;
15132;SDS011;7667;51.232;17.110;2023-04-12T08:20:42;4.27;;;2.83;;
15132;SDS011;7667;51.232;17.110;2023-04-12T08:23:10;6.30;;;3.80;;
15132;SDS011;7667;51.232;17.110;2023-04-12T08:25:38;3.07;;;2.50;;
15132;SDS011;7667;51.232;17.110;2023-04-12T08:28:05;2.43;;;2.23;;
15132;SDS011;7667;51.232;17.110;2023-04-12T08:30:36;4.93;;;3.37;;
15132;SDS011;7667;51.232;17.110;2023-04-12T08:33:04;3.03;;;2.20;;
15132;SDS011;7667;51.232;17.110;2023-04-12T08:35:32;3.40;;;2.13;;
15132;SDS011;7667;51.232;17.110;2023-04-12T08:37:59;3.70;;;2.00;;
15132;SDS011;7667;51.232;17.110;2023-04-12T08:40:33;3.00;;;1.93;;
15132;SDS011;7667;51.232;17.110;2023-04-12T08:43:01;2.53;;;1.93;;
15132;SDS011;7667;51.232;17.110;2023-04-12T08:45:34;5.43;;;4.20;;
15132;SDS011;7667;51.232;17.110;2023-04-12T08:48:03;3.20;;;1.50;;
15132;SDS011;7667;51.232;17.110;2023-04-12T08:50:32;3.10;;;1.70;;
15132;SDS011;7667;51.232;17.110;2023-04-12T08:52:59;1.80;;;1.60;;
15132;SDS011;7667;51.232;17.110;2023-04-12T08:55:28;2.83;;;1.40;;
15132;SDS011;7667;51.232;17.110;2023-04-12T08:57:56;3.13;;;1.63;;
15132;SDS011;7667;51.232;17.110;2023-04-12T09:00:25;3.20;;;1.63;;
15132;SDS011;7667;51.232;17.110;2023-04-12T09:02:53;3.70;;;1.50;;
15132;SDS011;7667;51.232;17.110;2023-04-12T09:05:26;2.50;;;1.50;;
15132;SDS011;7667;51.232;17.110;2023-04-12T09:07:56;3.70;;;1.50;;
15132;SDS011;7667;51.232;17.110;2023-04-12T09:10:31;3.70;;;1.60;;
15132;SDS011;7667;51.232;17.110;2023-04-12T09:13:04;1.67;;;1.40;;
15132;SDS011;7667;51.232;17.110;2023-04-12T09:15:32;2.87;;;1.60;;
15132;SDS011;7667;51.232;17.110;2023-04-12T09:18:09;3.43;;;1.30;;
15132;SDS011;7667;51.232;17.110;2023-04-12T09:20:42;3.00;;;1.60;;
15132;SDS011;7667;51.232;17.110;2023-04-12T09:23:20;2.20;;;1.40;;
15132;SDS011;7667;51.232;17.110;2023-04-12T09:25:52;2.10;;;1.53;;
15132;SDS011;7667;51.232;17.110;2023-04-12T09:28:23;2.77;;;1.53;;
15132;SDS011;7667;51.232;17.110;2023-04-12T09:30:53;3.03;;;2.37;;
15132;SDS011;7667;51.232;17.110;2023-04-12T09:33:31;5.63;;;4.40;;
15132;SDS011;7667;51.232;17.110;2023-04-12T09:36:06;8.80;;;5.23;;
15132;SDS011;7667;51.232;17.110;2023-04-12T09:38:39;4.13;;;2.30;;
15132;SDS011;7667;51.232;17.110;2023-04-12T09:41:19;4.47;;;2.10;;
15132;SDS011;7667;51.232;17.110;2023-04-12T09:43:57;11.97;;;6.87;;
15132;SDS011;7667;51.232;17.110;2023-04-12T09:46:26;4.20;;;2.67;;
15132;SDS011;7667;51.232;17.110;2023-04-12T09:48:55;3.23;;;1.83;;
15132;SDS011;7667;51.232;17.110;2023-04-12T09:51:30;3.17;;;1.70;;
15132;SDS011;7667;51.232;17.110;2023-04-12T09:54:00;1.93;;;1.60;;
15132;SDS011;7667;51.232;17.110;2023-04-12T09:56:31;2.37;;;1.83;;
15132;SDS011;7667;51.232;17.110;2023-04-12T09:59:04;17.03;;;10.97;;
15132;SDS011;7667;51.232;17.110;2023-04-12T10:01:39;2.70;;;1.70;;
15132;SDS011;7667;51.232;17.110;2023-04-12T10:04:08;2.83;;;1.83;;
15132;SDS011;7667;51.232;17.110;2023-04-12T10:06:36;4.00;;;2.30;;
15132;SDS011;7667;51.232;17.110;2023-04-12T10:09:04;3.03;;;2.07;;
15132;SDS011;7667;51.232;17.110;2023-04-12T10:11:34;2.97;;;1.83;;
15132;SDS011;7667;51.232;17.110;2023-04-12T10:14:06;3.77;;;1.70;;
15132;SDS011;7667;51.232;17.110;2023-04-12T10:16:34;2.93;;;2.20;;
15132;SDS011;7667;51.232;17.110;2023-04-12T10:19:07;3.00;;;1.90;;
15132;SDS011;7667;51.232;17.110;2023-04-12T10:21:36;3.17;;;2.03;;
15132;SDS011;7667;51.232;17.110;2023-04-12T10:24:04;4.47;;;2.10;;
15132;SDS011;7667;51.232;17.110;2023-04-12T10:26:35;5.10;;;2.40;;
15132;SDS011;7667;51.232;17.110;2023-04-12T10:29:25;4.10;;;2.10;;
15132;SDS011;7667;51.232;17.110;2023-04-12T10:32:19;2.90;;;1.70;;
15132;SDS011;7667;51.232;17.110;2023-04-12T10:34:51;2.80;;;1.70;;
15132;SDS011;7667;51.232;17.110;2023-04-12T10:37:55;4.93;;;1.90;;
15132;SDS011;7667;51.232;17.110;2023-04-12T10:40:33;2.07;;;1.30;;
15132;SDS011;7667;51.232;17.110;2023-04-12T10:45:54;3.40;;;1.50;;
15132;SDS011;7667;51.232;17.110;2023-04-12T10:48:39;2.43;;;1.37;;
15132;SDS011;7667;51.232;17.110;2023-04-12T10:51:18;4.47;;;1.50;;
15132;SDS011;7667;51.232;17.110;2023-04-12T10:53:51;3.10;;;1.40;;
15132;SDS011;7667;51.232;17.110;2023-04-12T10:59:00;1.40;;;1.30;;
15132;SDS011;7667;51.232;17.110;2023-04-12T11:01:30;2.60;;;1.93;;
15132;SDS011;7667;51.232;17.110;2023-04-12T11:04:20;2.70;;;1.30;;
15132;SDS011;7667;51.232;17.110;2023-04-12T11:09:21;2.10;;;1.60;;
15132;SDS011;7667;51.232;17.110;2023-04-12T11:11:57;3.27;;;1.40;;
15132;SDS011;7667;51.232;17.110;2023-04-12T11:19:48;2.47;;;1.20;;
15132;SDS011;7667;51.232;17.110;2023-04-12T11:22:26;4.00;;;1.83;;
15132;SDS011;7667;51.232;17.110;2023-04-12T11:24:57;1.93;;;1.63;;
15132;SDS011;7667;51.232;17.110;2023-04-12T11:27:27;2.80;;;1.73;;
15132;SDS011;7667;51.232;17.110;2023-04-12T11:29:59;2.90;;;1.57;;
15132;SDS011;7667;51.232;17.110;2023-04-12T11:32:28;2.83;;;1.70;;
15132;SDS011;7667;51.232;17.110;2023-04-12T11:34:56;1.80;;;1.70;;
15132;SDS011;7667;51.232;17.110;2023-04-12T11:37:24;2.97;;;1.50;;
15132;SDS011;7667;51.232;17.110;2023-04-12T11:39:54;2.53;;;1.50;;
15132;SDS011;7667;51.232;17.110;2023-04-12T11:42:24;4.70;;;1.57;;
15132;SDS011;7667;51.232;17.110;2023-04-12T11:44:53;2.43;;;1.47;;
15132;SDS011;7667;51.232;17.110;2023-04-12T11:47:25;2.30;;;1.37;;
15132;SDS011;7667;51.232;17.110;2023-04-12T11:49:55;1.60;;;1.40;;
15132;SDS011;7667;51.232;17.110;2023-04-12T11:52:28;1.57;;;1.40;;
15132;SDS011;7667;51.232;17.110;2023-04-12T11:55:02;2.50;;;1.50;;
15132;SDS011;7667;51.232;17.110;2023-04-12T11:57:32;2.53;;;1.40;;
15132;SDS011;7667;51.232;17.110;2023-04-12T12:00:01;1.90;;;1.43;;
15132;SDS011;7667;51.232;17.110;2023-04-12T12:02:32;2.87;;;1.37;;
15132;SDS011;7667;51.232;17.110;2023-04-12T12:05:11;2.53;;;1.53;;
15132;SDS011;7667;51.232;17.110;2023-04-12T12:07:40;3.13;;;1.27;;
15132;SDS011;7667;51.232;17.110;2023-04-12T12:10:08;2.03;;;1.20;;
15132;SDS011;7667;51.232;17.110;2023-04-12T12:12:36;1.00;;;1.00;;
15132;SDS011;7667;51.232;17.110;2023-04-12T12:15:04;3.80;;;1.23;;
15132;SDS011;7667;51.232;17.110;2023-04-12T12:17:34;1.87;;;1.30;;
15132;SDS011;7667;51.232;17.110;2023-04-12T12:20:05;1.60;;;1.10;;
15132;SDS011;7667;51.232;17.110;2023-04-12T12:22:45;1.57;;;1.00;;
15132;SDS011;7667;51.232;17.110;2023-04-12T12:25:13;1.77;;;1.20;;
15132;SDS011;7667;51.232;17.110;2023-04-12T12:27:43;1.87;;;1.23;;
15132;SDS011;7667;51.232;17.110;2023-04-12T12:30:17;1.93;;;1.30;;
15132;SDS011;7667;51.232;17.110;2023-04-12T12:32:48;2.60;;;1.70;;
15132;SDS011;7667;51.232;17.110;2023-04-12T12:35:20;1.97;;;1.50;;
15132;SDS011;7667;51.232;17.110;2023-04-12T12:37:48;2.03;;;1.30;;
15132;SDS011;7667;51.232;17.110;2023-04-12T12:40:27;3.20;;;1.23;;
15132;SDS011;7667;51.232;17.110;2023-04-12T12:42:59;2.93;;;1.30;;
15132;SDS011;7667;51.232;17.110;2023-04-12T12:45:28;2.00;;;1.10;;
15132;SDS011;7667;51.232;17.110;2023-04-12T12:48:00;1.53;;;0.90;;
15132;SDS011;7667;51.232;17.110;2023-04-12T12:50:31;1.73;;;1.00;;
15132;SDS011;7667;51.232;17.110;2023-04-12T12:53:02;1.20;;;1.00;;
15132;SDS011;7667;51.232;17.110;2023-04-12T12:55:36;1.60;;;1.00;;
15132;SDS011;7667;51.232;17.110;2023-04-12T12:58:04;4.00;;;2.00;;
15132;SDS011;7667;51.232;17.110;2023-04-12T13:00:34;2.73;;;1.20;;
15132;SDS011;7667;51.232;17.110;2023-04-12T13:03:02;1.40;;;1.30;;
15132;SDS011;7667;51.232;17.110;2023-04-12T13:05:31;1.20;;;1.10;;
15132;SDS011;7667;51.232;17.110;2023-04-12T13:07:58;1.67;;;1.27;;
15132;SDS011;7667;51.232;17.110;2023-04-12T13:10:26;2.03;;;1.00;;
15132;SDS011;7667;51.232;17.110;2023-04-12T13:12:54;1.77;;;1.00;;
15132;SDS011;7667;51.232;17.110;2023-04-12T13:15:22;3.17;;;1.10;;
15132;SDS011;7667;51.232;17.110;2023-04-12T13:17:50;1.40;;;1.30;;
15132;SDS011;7667;51.232;17.110;2023-04-12T13:20:19;2.90;;;1.50;;
15132;SDS011;7667;51.232;17.110;2023-04-12T13:22:48;2.30;;;1.37;;
15132;SDS011;7667;51.232;17.110;2023-04-12T13:25:17;2.47;;;1.23;;
15132;SDS011;7667;51.232;17.110;2023-04-12T13:27:46;2.57;;;1.40;;
15132;SDS011;7667;51.232;17.110;2023-04-12T13:30:15;1.73;;;1.13;;
15132;SDS011;7667;51.232;17.110;2023-04-12T13:32:44;2.10;;;1.20;;
15132;SDS011;7667;51.232;17.110;2023-04-12T13:35:12;3.03;;;1.30;;
15132;SDS011;7667;51.232;17.110;2023-04-12T13:37:40;1.60;;;1.20;;
15132;SDS011;7667;51.232;17.110;2023-04-12T13:40:08;1.43;;;1.03;;
15132;SDS011;7667;51.232;17.110;2023-04-12T13:42:36;1.93;;;1.30;;
15132;SDS011;7667;51.232;17.110;2023-04-12T13:45:04;1.37;;;1.10;;
15132;SDS011;7667;51.232;17.110;2023-04-12T13:47:33;2.90;;;1.50;;
15132;SDS011;7667;51.232;17.110;2023-04-12T13:50:01;3.70;;;1.63;;
15132;SDS011;7667;51.232;17.110;2023-04-12T13:52:28;1.87;;;1.43;;
15132;SDS011;7667;51.232;17.110;2023-04-12T13:54:56;1.43;;;1.03;;
15132;SDS011;7667;51.232;17.110;2023-04-12T13:57:25;2.70;;;1.40;;
15132;SDS011;7667;51.232;17.110;2023-04-12T13:59:52;1.67;;;1.30;;
15132;SDS011;7667;51.232;17.110;2023-04-12T14:02:20;1.67;;;1.00;;
15132;SDS011;7667;51.232;17.110;2023-04-12T14:04:51;1.23;;;1.00;;
15132;SDS011;7667;51.232;17.110;2023-04-12T14:07:20;3.00;;;1.20;;
15132;SDS011;7667;51.232;17.110;2023-04-12T14:09:48;1.00;;;0.90;;
15132;SDS011;7667;51.232;17.110;2023-04-12T14:12:16;1.67;;;1.30;;
15132;SDS011;7667;51.232;17.110;2023-04-12T14:14:43;2.00;;;1.20;;
15132;SDS011;7667;51.232;17.110;2023-04-12T14:17:11;1.30;;;1.20;;
15132;SDS011;7667;51.232;17.110;2023-04-12T14:19:38;2.27;;;1.30;;
15132;SDS011;7667;51.232;17.110;2023-04-12T14:22:06;1.80;;;1.50;;
15132;SDS011;7667;51.232;17.110;2023-04-12T14:24:34;1.83;;;1.23;;
15132;SDS011;7667;51.232;17.110;2023-04-12T14:27:02;1.97;;;1.20;;
15132;SDS011;7667;51.232;17.110;2023-04-12T14:29:30;2.43;;;1.50;;
15132;SDS011;7667;51.232;17.110;2023-04-12T14:31:58;1.93;;;1.20;;
15132;SDS011;7667;51.232;17.110;2023-04-12T14:34:26;3.10;;;1.20;;
15132;SDS011;7667;51.232;17.110;2023-04-12T14:36:53;1.47;;;1.00;;
15132;SDS011;7667;51.232;17.110;2023-04-12T14:39:21;2.33;;;1.10;;
15132;SDS011;7667;51.232;17.110;2023-04-12T14:41:50;1.10;;;1.00;;
15132;SDS011;7667;51.232;17.110;2023-04-12T14:44:17;2.03;;;1.20;;
15132;SDS011;7667;51.232;17.110;2023-04-12T14:46:46;1.70;;;1.40;;
15132;SDS011;7667;51.232;17.110;2023-04-12T14:49:14;1.43;;;1.20;;
15132;SDS011;7667;51.232;17.110;2023-04-12T14:51:41;3.73;;;1.60;;
15132;SDS011;7667;51.232;17.110;2023-04-12T14:54:09;3.60;;;2.67;;
15132;SDS011;7667;51.232;17.110;2023-04-12T14:56:36;1.93;;;1.40;;
15132;SDS011;7667;51.232;17.110;2023-04-12T14:59:15;2.77;;;1.70;;
15132;SDS011;7667;51.232;17.110;2023-04-12T15:01:42;1.83;;;1.30;;
15132;SDS011;7667;51.232;17.110;2023-04-12T15:04:10;1.80;;;1.30;;
15132;SDS011;7667;51.232;17.110;2023-04-12T15:06:38;3.37;;;1.50;;
15132;SDS011;7667;51.232;17.110;2023-04-12T15:09:08;2.47;;;1.27;;
15132;SDS011;7667;51.232;17.110;2023-04-12T15:11:36;1.80;;;1.33;;
15132;SDS011;7667;51.232;17.110;2023-04-12T15:14:05;2.07;;;1.40;;
15132;SDS011;7667;51.232;17.110;2023-04-12T15:16:33;1.70;;;1.40;;
15132;SDS011;7667;51.232;17.110;2023-04-12T15:19:00;1.60;;;1.30;;
15132;SDS011;7667;51.232;17.110;2023-04-12T15:21:41;2.23;;;1.40;;
15132;SDS011;7667;51.232;17.110;2023-04-12T15:24:09;4.27;;;2.00;;
15132;SDS011;7667;51.232;17.110;2023-04-12T15:26:37;3.67;;;1.60;;
15132;SDS011;7667;51.232;17.110;2023-04-12T15:29:04;3.33;;;2.10;;